sensor_id;sensor_type;location;lat;lon;timestamp;P1;durP1;ratioP1;P2;durP2;ratioP2
65387;SDS011;51992;53.528;49.474;2023-08-24T00:00:37;6.93;;;4.38;;
65387;SDS011;51992;53.528;49.474;2023-08-24T00:03:03;6.78;;;4.20;;
65387;SDS011;51992;53.528;49.474;2023-08-24T00:05:29;10.40;;;4.35;;
65387;SDS011;51992;53.528;49.474;2023-08-24T00:07:54;10.40;;;5.05;;
65387;SDS011;51992;53.528;49.474;2023-08-24T00:10:20;8.60;;;4.60;;
65387;SDS011;51992;53.528;49.474;2023-08-24T00:12:46;6.95;;;4.07;;
65387;SDS011;51992;53.528;49.474;2023-08-24T00:15:12;7.90;;;4.40;;
65387;SDS011;51992;53.528;49.474;2023-08-24T00:17:37;7.65;;;4.88;;
65387;SDS011;51992;53.528;49.474;2023-08-24T00:20:04;9.63;;;4.45;;
65387;SDS011;51992;53.528;49.474;2023-08-24T00:22:30;8.55;;;4.47;;
65387;SDS011;51992;53.528;49.474;2023-08-24T00:24:56;11.27;;;4.63;;
65387;SDS011;51992;53.528;49.474;2023-08-24T00:27:21;12.35;;;4.40;;
65387;SDS011;51992;53.528;49.474;2023-08-24T00:29:47;10.35;;;4.47;;
65387;SDS011;51992;53.528;49.474;2023-08-24T00:32:13;13.38;;;4.55;;
65387;SDS011;51992;53.528;49.474;2023-08-24T00:34:38;9.35;;;4.55;;
65387;SDS011;51992;53.528;49.474;2023-08-24T00:37:04;5.78;;;3.95;;
65387;SDS011;51992;53.528;49.474;2023-08-24T00:39:30;9.77;;;4.40;;
65387;SDS011;51992;53.528;49.474;2023-08-24T00:41:55;7.57;;;4.47;;
65387;SDS011;51992;53.528;49.474;2023-08-24T00:44:21;5.20;;;4.30;;
65387;SDS011;51992;53.528;49.474;2023-08-24T00:46:47;10.60;;;4.30;;
65387;SDS011;51992;53.528;49.474;2023-08-24T00:49:13;10.23;;;4.55;;
65387;SDS011;51992;53.528;49.474;2023-08-24T00:51:39;11.07;;;4.53;;
65387;SDS011;51992;53.528;49.474;2023-08-24T00:54:05;7.68;;;3.97;;
65387;SDS011;51992;53.528;49.474;2023-08-24T00:56:31;8.88;;;4.30;;
65387;SDS011;51992;53.528;49.474;2023-08-24T00:58:56;16.50;;;4.72;;
65387;SDS011;51992;53.528;49.474;2023-08-24T01:01:22;8.18;;;4.18;;
65387;SDS011;51992;53.528;49.474;2023-08-24T01:03:50;7.63;;;4.35;;
65387;SDS011;51992;53.528;49.474;2023-08-24T01:06:16;8.25;;;3.53;;
65387;SDS011;51992;53.528;49.474;2023-08-24T01:08:42;13.95;;;4.00;;
65387;SDS011;51992;53.528;49.474;2023-08-24T01:11:31;8.23;;;4.18;;
65387;SDS011;51992;53.528;49.474;2023-08-24T01:14:08;9.60;;;4.32;;
65387;SDS011;51992;53.528;49.474;2023-08-24T01:16:34;10.55;;;4.20;;
65387;SDS011;51992;53.528;49.474;2023-08-24T01:19:06;10.05;;;4.25;;
65387;SDS011;51992;53.528;49.474;2023-08-24T01:21:33;10.15;;;4.22;;
65387;SDS011;51992;53.528;49.474;2023-08-24T01:24:10;13.25;;;4.57;;
65387;SDS011;51992;53.528;49.474;2023-08-24T01:26:37;8.75;;;4.50;;
65387;SDS011;51992;53.528;49.474;2023-08-24T01:29:04;13.43;;;5.25;;
65387;SDS011;51992;53.528;49.474;2023-08-24T01:31:30;14.15;;;4.53;;
65387;SDS011;51992;53.528;49.474;2023-08-24T01:33:56;11.95;;;4.78;;
65387;SDS011;51992;53.528;49.474;2023-08-24T01:36:22;8.35;;;4.70;;
65387;SDS011;51992;53.528;49.474;2023-08-24T01:38:50;7.10;;;4.22;;
65387;SDS011;51992;53.528;49.474;2023-08-24T01:41:24;9.70;;;4.45;;
65387;SDS011;51992;53.528;49.474;2023-08-24T01:43:52;11.70;;;4.50;;
65387;SDS011;51992;53.528;49.474;2023-08-24T01:46:19;9.98;;;4.53;;
65387;SDS011;51992;53.528;49.474;2023-08-24T01:48:46;11.65;;;4.65;;
65387;SDS011;51992;53.528;49.474;2023-08-24T01:51:13;9.57;;;4.45;;
65387;SDS011;51992;53.528;49.474;2023-08-24T01:53:39;9.88;;;5.03;;
65387;SDS011;51992;53.528;49.474;2023-08-24T01:56:09;6.15;;;4.70;;
65387;SDS011;51992;53.528;49.474;2023-08-24T01:58:35;10.95;;;5.00;;
65387;SDS011;51992;53.528;49.474;2023-08-24T02:01:01;6.75;;;4.63;;
65387;SDS011;51992;53.528;49.474;2023-08-24T02:03:27;9.85;;;4.60;;
65387;SDS011;51992;53.528;49.474;2023-08-24T02:05:53;15.57;;;5.00;;
65387;SDS011;51992;53.528;49.474;2023-08-24T02:08:19;8.88;;;4.15;;
65387;SDS011;51992;53.528;49.474;2023-08-24T02:10:46;6.90;;;4.70;;
65387;SDS011;51992;53.528;49.474;2023-08-24T02:13:12;7.90;;;4.50;;
65387;SDS011;51992;53.528;49.474;2023-08-24T02:15:38;11.60;;;4.78;;
65387;SDS011;51992;53.528;49.474;2023-08-24T02:18:07;14.32;;;4.32;;
65387;SDS011;51992;53.528;49.474;2023-08-24T02:20:36;14.98;;;5.13;;
65387;SDS011;51992;53.528;49.474;2023-08-24T02:23:03;18.65;;;4.50;;
65387;SDS011;51992;53.528;49.474;2023-08-24T02:25:29;8.32;;;4.43;;
65387;SDS011;51992;53.528;49.474;2023-08-24T02:27:55;11.10;;;4.50;;
65387;SDS011;51992;53.528;49.474;2023-08-24T02:30:21;16.90;;;4.38;;
65387;SDS011;51992;53.528;49.474;2023-08-24T02:32:47;10.18;;;4.07;;
65387;SDS011;51992;53.528;49.474;2023-08-24T02:35:13;9.13;;;3.85;;
65387;SDS011;51992;53.528;49.474;2023-08-24T02:37:38;11.57;;;4.10;;
65387;SDS011;51992;53.528;49.474;2023-08-24T02:40:04;13.45;;;4.32;;
65387;SDS011;51992;53.528;49.474;2023-08-24T02:42:31;10.93;;;4.32;;
65387;SDS011;51992;53.528;49.474;2023-08-24T02:44:58;10.82;;;4.47;;
65387;SDS011;51992;53.528;49.474;2023-08-24T02:47:24;7.90;;;4.28;;
65387;SDS011;51992;53.528;49.474;2023-08-24T02:49:50;9.95;;;3.97;;
65387;SDS011;51992;53.528;49.474;2023-08-24T02:52:16;12.77;;;4.60;;
65387;SDS011;51992;53.528;49.474;2023-08-24T02:54:41;13.88;;;4.32;;
65387;SDS011;51992;53.528;49.474;2023-08-24T02:57:07;11.23;;;4.75;;
65387;SDS011;51992;53.528;49.474;2023-08-24T02:59:33;9.30;;;4.60;;
65387;SDS011;51992;53.528;49.474;2023-08-24T03:01:59;8.75;;;4.30;;
65387;SDS011;51992;53.528;49.474;2023-08-24T03:04:25;12.63;;;5.30;;
65387;SDS011;51992;53.528;49.474;2023-08-24T03:06:51;15.02;;;5.53;;
65387;SDS011;51992;53.528;49.474;2023-08-24T03:09:17;10.77;;;5.07;;
65387;SDS011;51992;53.528;49.474;2023-08-24T03:11:43;11.82;;;4.63;;
65387;SDS011;51992;53.528;49.474;2023-08-24T03:14:09;11.18;;;4.47;;
65387;SDS011;51992;53.528;49.474;2023-08-24T03:16:37;8.95;;;4.40;;
65387;SDS011;51992;53.528;49.474;2023-08-24T03:19:02;8.50;;;3.85;;
65387;SDS011;51992;53.528;49.474;2023-08-24T03:21:28;9.68;;;4.47;;
65387;SDS011;51992;53.528;49.474;2023-08-24T03:23:54;15.68;;;5.60;;
65387;SDS011;51992;53.528;49.474;2023-08-24T03:26:21;20.75;;;5.18;;
65387;SDS011;51992;53.528;49.474;2023-08-24T03:28:49;11.57;;;5.50;;
65387;SDS011;51992;53.528;49.474;2023-08-24T03:31:15;10.02;;;4.80;;
65387;SDS011;51992;53.528;49.474;2023-08-24T03:33:41;16.75;;;5.13;;
65387;SDS011;51992;53.528;49.474;2023-08-24T03:36:07;13.70;;;5.40;;
65387;SDS011;51992;53.528;49.474;2023-08-24T03:38:33;25.90;;;6.07;;
65387;SDS011;51992;53.528;49.474;2023-08-24T03:41:05;23.88;;;6.53;;
65387;SDS011;51992;53.528;49.474;2023-08-24T03:43:32;26.27;;;5.30;;
65387;SDS011;51992;53.528;49.474;2023-08-24T03:46:03;18.52;;;5.55;;
65387;SDS011;51992;53.528;49.474;2023-08-24T03:48:32;11.25;;;4.85;;
65387;SDS011;51992;53.528;49.474;2023-08-24T03:50:58;19.40;;;5.75;;
65387;SDS011;51992;53.528;49.474;2023-08-24T03:53:24;9.85;;;5.32;;
65387;SDS011;51992;53.528;49.474;2023-08-24T03:55:51;15.43;;;4.85;;
65387;SDS011;51992;53.528;49.474;2023-08-24T03:58:17;11.40;;;5.15;;
65387;SDS011;51992;53.528;49.474;2023-08-24T04:00:46;16.00;;;4.90;;
65387;SDS011;51992;53.528;49.474;2023-08-24T04:03:12;16.55;;;4.95;;
65387;SDS011;51992;53.528;49.474;2023-08-24T04:05:38;18.15;;;5.57;;
65387;SDS011;51992;53.528;49.474;2023-08-24T04:08:04;17.67;;;4.82;;
65387;SDS011;51992;53.528;49.474;2023-08-24T04:10:30;12.90;;;4.32;;
65387;SDS011;51992;53.528;49.474;2023-08-24T04:12:56;19.40;;;4.75;;
65387;SDS011;51992;53.528;49.474;2023-08-24T04:15:22;22.83;;;5.18;;
65387;SDS011;51992;53.528;49.474;2023-08-24T04:17:48;14.20;;;4.63;;
65387;SDS011;51992;53.528;49.474;2023-08-24T04:20:13;13.52;;;5.18;;
65387;SDS011;51992;53.528;49.474;2023-08-24T04:22:39;24.48;;;5.28;;
65387;SDS011;51992;53.528;49.474;2023-08-24T04:25:05;19.80;;;5.40;;
65387;SDS011;51992;53.528;49.474;2023-08-24T04:27:31;25.00;;;4.60;;
65387;SDS011;51992;53.528;49.474;2023-08-24T04:29:58;10.45;;;4.25;;
65387;SDS011;51992;53.528;49.474;2023-08-24T04:32:23;14.45;;;4.50;;
65387;SDS011;51992;53.528;49.474;2023-08-24T04:34:49;16.25;;;3.90;;
65387;SDS011;51992;53.528;49.474;2023-08-24T04:37:15;41.90;;;6.22;;
65387;SDS011;51992;53.528;49.474;2023-08-24T04:39:41;34.22;;;5.10;;
65387;SDS011;51992;53.528;49.474;2023-08-24T04:42:07;26.17;;;4.43;;
65387;SDS011;51992;53.528;49.474;2023-08-24T04:44:32;34.58;;;5.10;;
65387;SDS011;51992;53.528;49.474;2023-08-24T04:46:58;13.57;;;4.28;;
65387;SDS011;51992;53.528;49.474;2023-08-24T04:49:24;14.20;;;4.72;;
65387;SDS011;51992;53.528;49.474;2023-08-24T04:51:49;11.52;;;4.35;;
65387;SDS011;51992;53.528;49.474;2023-08-24T04:54:15;10.77;;;3.78;;
65387;SDS011;51992;53.528;49.474;2023-08-24T04:56:41;12.65;;;4.55;;
65387;SDS011;51992;53.528;49.474;2023-08-24T04:59:07;7.40;;;3.55;;
65387;SDS011;51992;53.528;49.474;2023-08-24T05:01:33;19.80;;;4.90;;
65387;SDS011;51992;53.528;49.474;2023-08-24T05:03:59;18.42;;;3.90;;
65387;SDS011;51992;53.528;49.474;2023-08-24T05:06:25;31.05;;;4.80;;
65387;SDS011;51992;53.528;49.474;2023-08-24T05:08:51;61.63;;;7.80;;
65387;SDS011;51992;53.528;49.474;2023-08-24T05:11:18;40.47;;;4.78;;
65387;SDS011;51992;53.528;49.474;2023-08-24T05:13:44;26.13;;;5.93;;
65387;SDS011;51992;53.528;49.474;2023-08-24T05:16:11;20.58;;;5.43;;
65387;SDS011;51992;53.528;49.474;2023-08-24T05:18:37;24.75;;;4.78;;
65387;SDS011;51992;53.528;49.474;2023-08-24T05:21:03;15.13;;;4.50;;
65387;SDS011;51992;53.528;49.474;2023-08-24T05:23:30;30.45;;;4.78;;
65387;SDS011;51992;53.528;49.474;2023-08-24T05:25:56;15.95;;;4.65;;
65387;SDS011;51992;53.528;49.474;2023-08-24T05:28:26;11.07;;;3.45;;
65387;SDS011;51992;53.528;49.474;2023-08-24T05:30:53;34.83;;;4.82;;
65387;SDS011;51992;53.528;49.474;2023-08-24T05:33:20;7.65;;;2.30;;
65387;SDS011;51992;53.528;49.474;2023-08-24T05:35:47;7.15;;;2.33;;
65387;SDS011;51992;53.528;49.474;2023-08-24T05:38:13;12.25;;;3.50;;
65387;SDS011;51992;53.528;49.474;2023-08-24T05:40:39;8.65;;;2.92;;
65387;SDS011;51992;53.528;49.474;2023-08-24T05:43:07;3.75;;;2.22;;
65387;SDS011;51992;53.528;49.474;2023-08-24T05:45:32;3.70;;;2.25;;
65387;SDS011;51992;53.528;49.474;2023-08-24T05:47:58;4.07;;;2.33;;
65387;SDS011;51992;53.528;49.474;2023-08-24T05:50:24;2.83;;;2.50;;
65387;SDS011;51992;53.528;49.474;2023-08-24T05:52:50;3.63;;;2.00;;
65387;SDS011;51992;53.528;49.474;2023-08-24T05:55:16;9.50;;;2.70;;
65387;SDS011;51992;53.528;49.474;2023-08-24T05:57:42;8.20;;;2.47;;
65387;SDS011;51992;53.528;49.474;2023-08-24T06:00:08;3.58;;;2.60;;
65387;SDS011;51992;53.528;49.474;2023-08-24T06:02:38;2.85;;;2.30;;
65387;SDS011;51992;53.528;49.474;2023-08-24T06:05:05;2.40;;;2.13;;
65387;SDS011;51992;53.528;49.474;2023-08-24T06:07:32;9.52;;;2.80;;
65387;SDS011;51992;53.528;49.474;2023-08-24T06:09:58;9.85;;;2.88;;
65387;SDS011;51992;53.528;49.474;2023-08-24T06:12:24;33.10;;;3.90;;
65387;SDS011;51992;53.528;49.474;2023-08-24T06:14:50;19.10;;;3.60;;
65387;SDS011;51992;53.528;49.474;2023-08-24T06:17:16;15.30;;;3.55;;
65387;SDS011;51992;53.528;49.474;2023-08-24T06:19:42;7.97;;;2.83;;
65387;SDS011;51992;53.528;49.474;2023-08-24T06:22:08;5.55;;;2.40;;
65387;SDS011;51992;53.528;49.474;2023-08-24T06:24:34;4.32;;;3.20;;
65387;SDS011;51992;53.528;49.474;2023-08-24T06:27:00;6.07;;;3.45;;
65387;SDS011;51992;53.528;49.474;2023-08-24T06:29:28;6.72;;;2.90;;
65387;SDS011;51992;53.528;49.474;2023-08-24T06:31:54;8.60;;;3.05;;
65387;SDS011;51992;53.528;49.474;2023-08-24T06:34:20;4.93;;;2.88;;
65387;SDS011;51992;53.528;49.474;2023-08-24T06:36:46;8.80;;;6.05;;
65387;SDS011;51992;53.528;49.474;2023-08-24T06:39:13;4.20;;;3.80;;
65387;SDS011;51992;53.528;49.474;2023-08-24T06:41:39;7.18;;;3.00;;
65387;SDS011;51992;53.528;49.474;2023-08-24T06:44:05;3.50;;;3.00;;
65387;SDS011;51992;53.528;49.474;2023-08-24T06:46:31;5.43;;;3.00;;
65387;SDS011;51992;53.528;49.474;2023-08-24T06:48:57;7.22;;;2.88;;
65387;SDS011;51992;53.528;49.474;2023-08-24T06:51:24;6.70;;;3.05;;
65387;SDS011;51992;53.528;49.474;2023-08-24T06:53:50;30.45;;;4.43;;
65387;SDS011;51992;53.528;49.474;2023-08-24T06:56:16;132.32;;;14.88;;
65387;SDS011;51992;53.528;49.474;2023-08-24T06:58:47;208.55;;;22.40;;
65387;SDS011;51992;53.528;49.474;2023-08-24T07:01:13;140.48;;;16.42;;
65387;SDS011;51992;53.528;49.474;2023-08-24T07:03:39;166.18;;;20.30;;
65387;SDS011;51992;53.528;49.474;2023-08-24T07:06:06;126.60;;;18.55;;
65387;SDS011;51992;53.528;49.474;2023-08-24T07:08:33;120.30;;;16.38;;
65387;SDS011;51992;53.528;49.474;2023-08-24T07:10:59;96.10;;;14.55;;
65387;SDS011;51992;53.528;49.474;2023-08-24T07:13:25;117.75;;;11.95;;
65387;SDS011;51992;53.528;49.474;2023-08-24T07:15:52;74.72;;;9.65;;
65387;SDS011;51992;53.528;49.474;2023-08-24T07:18:18;116.32;;;13.43;;
65387;SDS011;51992;53.528;49.474;2023-08-24T07:20:44;118.43;;;14.77;;
65387;SDS011;51992;53.528;49.474;2023-08-24T07:23:09;72.40;;;10.70;;
65387;SDS011;51992;53.528;49.474;2023-08-24T07:25:35;115.45;;;13.38;;
65387;SDS011;51992;53.528;49.474;2023-08-24T07:28:01;97.90;;;12.18;;
65387;SDS011;51992;53.528;49.474;2023-08-24T07:30:30;130.52;;;13.98;;
65387;SDS011;51992;53.528;49.474;2023-08-24T07:32:56;168.45;;;18.23;;
65387;SDS011;51992;53.528;49.474;2023-08-24T07:35:21;148.52;;;16.48;;
65387;SDS011;51992;53.528;49.474;2023-08-24T07:37:50;186.27;;;17.77;;
65387;SDS011;51992;53.528;49.474;2023-08-24T07:40:17;124.97;;;13.80;;
65387;SDS011;51992;53.528;49.474;2023-08-24T07:42:50;110.07;;;12.57;;
65387;SDS011;51992;53.528;49.474;2023-08-24T07:45:21;94.13;;;11.20;;
65387;SDS011;51992;53.528;49.474;2023-08-24T07:47:47;75.95;;;9.95;;
65387;SDS011;51992;53.528;49.474;2023-08-24T07:50:13;164.27;;;16.13;;
65387;SDS011;51992;53.528;49.474;2023-08-24T07:52:39;86.03;;;9.00;;
65387;SDS011;51992;53.528;49.474;2023-08-24T07:55:05;86.97;;;10.93;;
65387;SDS011;51992;53.528;49.474;2023-08-24T07:57:38;34.80;;;5.93;;
65387;SDS011;51992;53.528;49.474;2023-08-24T08:00:05;8.57;;;2.72;;
65387;SDS011;51992;53.528;49.474;2023-08-24T08:02:31;6.07;;;2.50;;
65387;SDS011;51992;53.528;49.474;2023-08-24T08:04:58;4.85;;;2.55;;
65387;SDS011;51992;53.528;49.474;2023-08-24T08:07:28;4.93;;;2.42;;
65387;SDS011;51992;53.528;49.474;2023-08-24T08:09:54;5.53;;;2.17;;
65387;SDS011;51992;53.528;49.474;2023-08-24T08:12:20;6.32;;;2.75;;
65387;SDS011;51992;53.528;49.474;2023-08-24T08:14:46;5.32;;;2.60;;
65387;SDS011;51992;53.528;49.474;2023-08-24T08:17:12;21.58;;;3.97;;
65387;SDS011;51992;53.528;49.474;2023-08-24T08:19:37;19.73;;;3.53;;
65387;SDS011;51992;53.528;49.474;2023-08-24T08:22:04;4.95;;;2.70;;
65387;SDS011;51992;53.528;49.474;2023-08-24T08:24:30;7.57;;;2.60;;
65387;SDS011;51992;53.528;49.474;2023-08-24T08:26:56;2.05;;;1.67;;
65387;SDS011;51992;53.528;49.474;2023-08-24T08:29:22;2.42;;;1.83;;
65387;SDS011;51992;53.528;49.474;2023-08-24T08:31:48;4.25;;;2.33;;
65387;SDS011;51992;53.528;49.474;2023-08-24T08:34:13;2.20;;;1.98;;
65387;SDS011;51992;53.528;49.474;2023-08-24T08:36:39;3.05;;;1.90;;
65387;SDS011;51992;53.528;49.474;2023-08-24T08:39:05;2.10;;;1.90;;
65387;SDS011;51992;53.528;49.474;2023-08-24T08:41:33;6.70;;;2.15;;
65387;SDS011;51992;53.528;49.474;2023-08-24T08:44:04;3.88;;;2.33;;
65387;SDS011;51992;53.528;49.474;2023-08-24T08:46:31;3.70;;;1.92;;
65387;SDS011;51992;53.528;49.474;2023-08-24T08:48:59;3.03;;;2.35;;
65387;SDS011;51992;53.528;49.474;2023-08-24T08:51:25;2.25;;;2.00;;
65387;SDS011;51992;53.528;49.474;2023-08-24T08:53:51;1.90;;;1.70;;
65387;SDS011;51992;53.528;49.474;2023-08-24T08:56:17;3.42;;;1.70;;
65387;SDS011;51992;53.528;49.474;2023-08-24T08:58:43;2.05;;;1.85;;
65387;SDS011;51992;53.528;49.474;2023-08-24T09:01:09;2.35;;;1.70;;
65387;SDS011;51992;53.528;49.474;2023-08-24T09:03:36;2.38;;;1.27;;
65387;SDS011;51992;53.528;49.474;2023-08-24T09:06:05;5.00;;;1.45;;
65387;SDS011;51992;53.528;49.474;2023-08-24T09:08:31;6.68;;;1.60;;
65387;SDS011;51992;53.528;49.474;2023-08-24T09:11:00;9.40;;;2.13;;
65387;SDS011;51992;53.528;49.474;2023-08-24T09:13:26;3.25;;;1.65;;
65387;SDS011;51992;53.528;49.474;2023-08-24T09:15:52;4.18;;;2.00;;
65387;SDS011;51992;53.528;49.474;2023-08-24T09:18:21;8.02;;;2.35;;
65387;SDS011;51992;53.528;49.474;2023-08-24T09:20:47;7.35;;;1.67;;
65387;SDS011;51992;53.528;49.474;2023-08-24T09:23:17;2.13;;;1.48;;
65387;SDS011;51992;53.528;49.474;2023-08-24T09:25:47;3.90;;;1.70;;
65387;SDS011;51992;53.528;49.474;2023-08-24T09:28:13;3.65;;;1.45;;
65387;SDS011;51992;53.528;49.474;2023-08-24T09:30:39;2.50;;;1.92;;
65387;SDS011;51992;53.528;49.474;2023-08-24T09:33:11;3.72;;;1.60;;
65387;SDS011;51992;53.528;49.474;2023-08-24T09:35:38;3.97;;;1.58;;
65387;SDS011;51992;53.528;49.474;2023-08-24T09:38:23;5.00;;;1.92;;
65387;SDS011;51992;53.528;49.474;2023-08-24T09:40:52;2.83;;;1.77;;
65387;SDS011;51992;53.528;49.474;2023-08-24T09:43:19;4.03;;;2.30;;
65387;SDS011;51992;53.528;49.474;2023-08-24T09:45:51;6.70;;;2.42;;
65387;SDS011;51992;53.528;49.474;2023-08-24T09:48:18;22.95;;;4.22;;
65387;SDS011;51992;53.528;49.474;2023-08-24T09:50:47;15.63;;;2.42;;
65387;SDS011;51992;53.528;49.474;2023-08-24T09:53:15;14.85;;;2.70;;
65387;SDS011;51992;53.528;49.474;2023-08-24T09:55:42;4.72;;;2.25;;
65387;SDS011;51992;53.528;49.474;2023-08-24T09:58:09;2.67;;;1.92;;
65387;SDS011;51992;53.528;49.474;2023-08-24T10:00:38;5.07;;;2.08;;
65387;SDS011;51992;53.528;49.474;2023-08-24T10:03:04;8.32;;;2.47;;
65387;SDS011;51992;53.528;49.474;2023-08-24T10:05:30;2.97;;;2.33;;
65387;SDS011;51992;53.528;49.474;2023-08-24T10:07:57;4.78;;;2.10;;
65387;SDS011;51992;53.528;49.474;2023-08-24T10:10:25;3.15;;;2.03;;
65387;SDS011;51992;53.528;49.474;2023-08-24T10:12:52;2.97;;;1.90;;
65387;SDS011;51992;53.528;49.474;2023-08-24T10:15:19;6.80;;;1.92;;
65387;SDS011;51992;53.528;49.474;2023-08-24T10:17:49;3.28;;;2.00;;
65387;SDS011;51992;53.528;49.474;2023-08-24T10:20:17;3.35;;;1.90;;
65387;SDS011;51992;53.528;49.474;2023-08-24T10:22:43;1.63;;;1.48;;
65387;SDS011;51992;53.528;49.474;2023-08-24T10:25:09;3.28;;;1.83;;
65387;SDS011;51992;53.528;49.474;2023-08-24T10:27:35;2.40;;;2.20;;
65387;SDS011;51992;53.528;49.474;2023-08-24T10:30:02;2.58;;;1.88;;
65387;SDS011;51992;53.528;49.474;2023-08-24T10:32:28;4.00;;;1.77;;
65387;SDS011;51992;53.528;49.474;2023-08-24T10:34:54;4.07;;;2.03;;
65387;SDS011;51992;53.528;49.474;2023-08-24T10:37:27;11.60;;;2.70;;
65387;SDS011;51992;53.528;49.474;2023-08-24T10:39:53;28.77;;;5.15;;
65387;SDS011;51992;53.528;49.474;2023-08-24T10:42:19;2.95;;;2.20;;
65387;SDS011;51992;53.528;49.474;2023-08-24T10:44:46;1.65;;;1.55;;
65387;SDS011;51992;53.528;49.474;2023-08-24T10:49:45;1.45;;;1.27;;
65387;SDS011;51992;53.528;49.474;2023-08-24T10:52:23;2.70;;;1.63;;
65387;SDS011;51992;53.528;49.474;2023-08-24T10:54:50;2.03;;;1.73;;
65387;SDS011;51992;53.528;49.474;2023-08-24T10:57:23;3.75;;;1.70;;
65387;SDS011;51992;53.528;49.474;2023-08-24T11:02:25;3.08;;;1.25;;
65387;SDS011;51992;53.528;49.474;2023-08-24T11:05:07;3.47;;;1.30;;
65387;SDS011;51992;53.528;49.474;2023-08-24T11:07:33;2.00;;;1.00;;
65387;SDS011;51992;53.528;49.474;2023-08-24T11:09:59;5.93;;;1.92;;
65387;SDS011;51992;53.528;49.474;2023-08-24T11:13:09;4.03;;;1.83;;
65387;SDS011;51992;53.528;49.474;2023-08-24T11:20:42;2.63;;;1.40;;
65387;SDS011;51992;53.528;49.474;2023-08-24T11:23:09;2.50;;;1.60;;
65387;SDS011;51992;53.528;49.474;2023-08-24T11:25:37;1.98;;;1.30;;
65387;SDS011;51992;53.528;49.474;2023-08-24T11:28:04;2.83;;;1.25;;
65387;SDS011;51992;53.528;49.474;2023-08-24T11:30:31;2.35;;;1.55;;
65387;SDS011;51992;53.528;49.474;2023-08-24T11:32:57;2.67;;;1.58;;
65387;SDS011;51992;53.528;49.474;2023-08-24T11:35:22;2.60;;;1.38;;
65387;SDS011;51992;53.528;49.474;2023-08-24T11:37:52;2.63;;;1.90;;
65387;SDS011;51992;53.528;49.474;2023-08-24T11:40:18;3.78;;;2.05;;
65387;SDS011;51992;53.528;49.474;2023-08-24T11:42:55;10.93;;;2.95;;
65387;SDS011;51992;53.528;49.474;2023-08-24T11:45:21;35.22;;;5.55;;
65387;SDS011;51992;53.528;49.474;2023-08-24T11:47:48;24.20;;;5.05;;
65387;SDS011;51992;53.528;49.474;2023-08-24T11:50:14;17.67;;;3.10;;
65387;SDS011;51992;53.528;49.474;2023-08-24T11:52:40;9.15;;;3.60;;
65387;SDS011;51992;53.528;49.474;2023-08-24T11:55:06;3.55;;;1.70;;
65387;SDS011;51992;53.528;49.474;2023-08-24T11:57:34;3.55;;;2.13;;
65387;SDS011;51992;53.528;49.474;2023-08-24T12:00:01;7.40;;;3.17;;
65387;SDS011;51992;53.528;49.474;2023-08-24T12:02:27;7.35;;;2.25;;
65387;SDS011;51992;53.528;49.474;2023-08-24T12:04:53;6.25;;;2.33;;
65387;SDS011;51992;53.528;49.474;2023-08-24T12:07:20;11.68;;;3.28;;
65387;SDS011;51992;53.528;49.474;2023-08-24T12:09:46;6.32;;;2.30;;
65387;SDS011;51992;53.528;49.474;2023-08-24T12:12:16;27.08;;;5.40;;
65387;SDS011;51992;53.528;49.474;2023-08-24T12:14:42;7.32;;;1.75;;
65387;SDS011;51992;53.528;49.474;2023-08-24T12:17:11;8.10;;;2.47;;
65387;SDS011;51992;53.528;49.474;2023-08-24T12:19:44;22.30;;;4.35;;
65387;SDS011;51992;53.528;49.474;2023-08-24T12:22:17;19.02;;;3.83;;
65387;SDS011;51992;53.528;49.474;2023-08-24T12:24:43;22.13;;;3.92;;
65387;SDS011;51992;53.528;49.474;2023-08-24T12:27:17;4.90;;;2.42;;
65387;SDS011;51992;53.528;49.474;2023-08-24T12:29:46;6.03;;;1.60;;
65387;SDS011;51992;53.528;49.474;2023-08-24T12:32:12;6.07;;;1.83;;
65387;SDS011;51992;53.528;49.474;2023-08-24T12:34:41;2.13;;;1.45;;
65387;SDS011;51992;53.528;49.474;2023-08-24T12:37:06;2.92;;;1.65;;
65387;SDS011;51992;53.528;49.474;2023-08-24T12:39:36;8.40;;;2.95;;
65387;SDS011;51992;53.528;49.474;2023-08-24T12:42:02;16.23;;;3.35;;
65387;SDS011;51992;53.528;49.474;2023-08-24T12:44:28;12.15;;;3.25;;
65387;SDS011;51992;53.528;49.474;2023-08-24T12:46:56;4.25;;;2.17;;
65387;SDS011;51992;53.528;49.474;2023-08-24T12:49:22;5.30;;;1.92;;
65387;SDS011;51992;53.528;49.474;2023-08-24T12:51:48;2.85;;;1.88;;
65387;SDS011;51992;53.528;49.474;2023-08-24T12:54:14;5.30;;;2.17;;
65387;SDS011;51992;53.528;49.474;2023-08-24T12:56:40;8.95;;;2.05;;
65387;SDS011;51992;53.528;49.474;2023-08-24T12:59:06;6.07;;;3.40;;
65387;SDS011;51992;53.528;49.474;2023-08-24T13:01:32;4.13;;;2.72;;
65387;SDS011;51992;53.528;49.474;2023-08-24T13:03:58;5.55;;;3.08;;
65387;SDS011;51992;53.528;49.474;2023-08-24T13:06:24;3.30;;;2.33;;
65387;SDS011;51992;53.528;49.474;2023-08-24T13:08:53;3.10;;;2.50;;
65387;SDS011;51992;53.528;49.474;2023-08-24T13:11:19;4.40;;;2.40;;
65387;SDS011;51992;53.528;49.474;2023-08-24T13:13:47;3.90;;;2.30;;
65387;SDS011;51992;53.528;49.474;2023-08-24T13:16:13;3.80;;;2.63;;
65387;SDS011;51992;53.528;49.474;2023-08-24T13:18:38;3.15;;;2.25;;
65387;SDS011;51992;53.528;49.474;2023-08-24T13:21:04;4.38;;;2.70;;
65387;SDS011;51992;53.528;49.474;2023-08-24T13:23:30;3.03;;;2.22;;
65387;SDS011;51992;53.528;49.474;2023-08-24T13:25:57;2.78;;;1.83;;
65387;SDS011;51992;53.528;49.474;2023-08-24T13:28:23;2.08;;;1.80;;
65387;SDS011;51992;53.528;49.474;2023-08-24T13:30:49;1.95;;;1.75;;
65387;SDS011;51992;53.528;49.474;2023-08-24T13:33:15;3.20;;;2.30;;
65387;SDS011;51992;53.528;49.474;2023-08-24T13:35:40;5.70;;;2.30;;
65387;SDS011;51992;53.528;49.474;2023-08-24T13:38:06;6.10;;;2.15;;
65387;SDS011;51992;53.528;49.474;2023-08-24T13:40:32;5.32;;;2.50;;
65387;SDS011;51992;53.528;49.474;2023-08-24T13:42:58;4.53;;;2.50;;
65387;SDS011;51992;53.528;49.474;2023-08-24T13:45:24;3.60;;;1.88;;
65387;SDS011;51992;53.528;49.474;2023-08-24T13:47:50;6.50;;;2.00;;
65387;SDS011;51992;53.528;49.474;2023-08-24T13:50:16;7.57;;;2.47;;
65387;SDS011;51992;53.528;49.474;2023-08-24T13:52:42;2.70;;;2.50;;
65387;SDS011;51992;53.528;49.474;2023-08-24T13:55:11;7.50;;;2.40;;
65387;SDS011;51992;53.528;49.474;2023-08-24T13:57:44;6.18;;;2.33;;
65387;SDS011;51992;53.528;49.474;2023-08-24T14:00:16;7.00;;;2.03;;
65387;SDS011;51992;53.528;49.474;2023-08-24T14:02:43;3.85;;;2.33;;
65387;SDS011;51992;53.528;49.474;2023-08-24T14:05:10;7.82;;;2.42;;
65387;SDS011;51992;53.528;49.474;2023-08-24T14:07:41;7.13;;;2.80;;
65387;SDS011;51992;53.528;49.474;2023-08-24T14:10:07;3.95;;;2.75;;
65387;SDS011;51992;53.528;49.474;2023-08-24T14:12:33;7.10;;;2.78;;
65387;SDS011;51992;53.528;49.474;2023-08-24T14:15:00;6.70;;;3.08;;
65387;SDS011;51992;53.528;49.474;2023-08-24T14:17:26;9.38;;;3.65;;
65387;SDS011;51992;53.528;49.474;2023-08-24T14:19:52;7.22;;;2.97;;
65387;SDS011;51992;53.528;49.474;2023-08-24T14:22:19;7.10;;;2.90;;
65387;SDS011;51992;53.528;49.474;2023-08-24T14:24:45;15.60;;;3.40;;
65387;SDS011;51992;53.528;49.474;2023-08-24T14:27:10;15.55;;;3.55;;
65387;SDS011;51992;53.528;49.474;2023-08-24T14:29:36;8.88;;;2.13;;
65387;SDS011;51992;53.528;49.474;2023-08-24T14:32:02;6.00;;;2.33;;
65387;SDS011;51992;53.528;49.474;2023-08-24T14:34:28;7.03;;;3.17;;
65387;SDS011;51992;53.528;49.474;2023-08-24T14:36:54;15.43;;;3.45;;